Glou Point, Virginia
Current Conditions -  °F | °C
As of 8:54 PM on Saturday 22 Nov 2014 (Local Time) from KPHF Reporting Station
Clear Clear  
Wind Chill: 35°   Ceiling: Unl
Heat Index: 35°   Visibility: 10mi
Dew Point: 25°   Wind: 0mph
Humidity: 67%   Direction: NA
Pressure: 30.36"   Gusts: NA
Location:  37.2577°N, 76.4965°W
Report Text: KPHF 230154Z AUTO 00000KT 10SM CLR 02/M04 A3036 RMK AO2 RAB0056E06 SLP280 P0000 T00171039 TSNO $
Loading
Personal Weather Stations






























Interactive Weather Map New forecast layout! Learn more

10-Day Weather Forecast

Advertisements
Track Severe Weather on mobile